createdAt,value
2023-05-05T00:00:33.231Z,8.40
2023-05-05T00:01:33.327Z,8.41
2023-05-05T00:02:33.291Z,8.41
2023-05-05T00:03:33.324Z,8.40
2023-05-05T00:04:33.276Z,8.41
2023-05-05T00:05:33.293Z,8.39
2023-05-05T00:06:33.309Z,8.39
2023-05-05T00:07:33.307Z,8.39
2023-05-05T00:08:33.329Z,8.38
2023-05-05T00:09:33.334Z,8.36
2023-05-05T00:10:33.345Z,8.36
2023-05-05T00:11:33.354Z,8.34
2023-05-05T00:12:33.394Z,8.33
2023-05-05T00:13:33.380Z,8.31
2023-05-05T00:14:33.403Z,8.33
2023-05-05T00:15:33.405Z,8.32
2023-05-05T00:16:33.478Z,8.31
2023-05-05T00:17:33.451Z,8.30
2023-05-05T00:18:33.441Z,8.27
2023-05-05T00:19:33.454Z,8.25
2023-05-05T00:20:33.456Z,8.23
2023-05-05T00:21:33.471Z,8.21
2023-05-05T00:22:33.475Z,8.19
2023-05-05T00:23:33.488Z,8.19
2023-05-05T00:24:33.497Z,8.18
2023-05-05T00:25:33.509Z,8.17
2023-05-05T00:26:33.521Z,8.18
2023-05-05T00:27:33.571Z,8.18
2023-05-05T00:28:33.545Z,8.17
2023-05-05T00:29:33.552Z,8.16
2023-05-05T00:30:33.564Z,8.16
2023-05-05T00:31:33.593Z,8.14
2023-05-05T00:32:33.600Z,8.15
2023-05-05T00:33:33.604Z,8.17
2023-05-05T00:51:34.127Z,8.21
2023-05-05T00:52:33.811Z,8.20
2023-05-05T00:53:33.811Z,8.20
2023-05-05T00:54:33.817Z,8.17
2023-05-05T00:55:33.831Z,8.15
2023-05-05T00:56:33.844Z,8.13
2023-05-05T00:57:33.858Z,8.12
2023-05-05T00:58:33.869Z,8.10
2023-05-05T00:59:33.882Z,8.12
2023-05-05T01:00:33.893Z,8.09
2023-05-05T01:01:33.908Z,8.09
2023-05-05T01:02:33.943Z,8.06
2023-05-05T01:03:33.964Z,8.06
2023-05-05T01:04:33.931Z,8.03
2023-05-05T01:05:33.938Z,8.01
2023-05-05T01:06:33.948Z,8.02
2023-05-05T01:07:33.959Z,7.98
2023-05-05T01:08:33.974Z,7.97
2023-05-05T01:09:33.976Z,7.95
2023-05-05T01:10:33.994Z,7.92
2023-05-05T01:11:34.008Z,7.91
2023-05-05T01:12:34.043Z,7.88
2023-05-05T01:13:34.025Z,7.86
2023-05-05T01:14:34.033Z,7.87
2023-05-05T01:15:34.045Z,7.87
2023-05-05T01:16:34.077Z,7.86
2023-05-05T01:17:34.094Z,7.86
2023-05-05T01:18:34.068Z,7.84
2023-05-05T01:19:34.080Z,7.84
2023-05-05T01:20:34.087Z,7.85
2023-05-05T01:21:34.098Z,7.83
2023-05-05T01:22:34.110Z,7.81
2023-05-05T01:23:34.122Z,7.81
2023-05-05T01:24:34.131Z,7.81
2023-05-05T01:25:34.145Z,7.81
2023-05-05T01:26:34.154Z,7.79
2023-05-05T01:27:34.336Z,7.81
2023-05-05T01:28:34.171Z,7.79
2023-05-05T01:29:34.184Z,7.77
2023-05-05T01:30:34.193Z,7.75
2023-05-05T01:31:34.240Z,7.75
2023-05-05T01:32:34.279Z,7.75
2023-05-05T01:33:34.225Z,7.75
2023-05-05T01:34:34.240Z,7.74
2023-05-05T01:35:34.246Z,7.74
2023-05-05T01:36:34.250Z,7.74
2023-05-05T01:37:34.266Z,7.71
2023-05-05T01:38:34.268Z,7.68
2023-05-05T01:39:34.283Z,7.70
2023-05-05T01:40:34.291Z,7.70
2023-05-05T01:41:34.308Z,7.69
2023-05-05T01:42:34.322Z,7.70
2023-05-05T01:43:34.321Z,7.70
2023-05-05T01:44:34.335Z,7.69
2023-05-05T01:45:34.398Z,7.72
2023-05-05T01:46:34.354Z,7.69
2023-05-05T01:47:34.372Z,7.68
2023-05-05T01:48:34.372Z,7.67
2023-05-05T01:49:34.391Z,7.67
2023-05-05T01:50:34.402Z,7.67
2023-05-05T01:51:34.417Z,7.70
2023-05-05T01:52:34.420Z,7.67
2023-05-05T01:53:34.429Z,7.66
2023-05-05T01:54:34.445Z,7.67
2023-05-05T01:55:34.454Z,7.66
2023-05-05T01:56:34.468Z,7.65
2023-05-05T01:57:34.483Z,7.65
2023-05-05T01:58:34.491Z,7.62
2023-05-05T01:59:34.511Z,7.61
2023-05-05T02:00:34.513Z,7.61
2023-05-05T02:01:34.551Z,7.60
2023-05-05T02:02:34.602Z,7.61
2023-05-05T02:03:34.569Z,7.64
2023-05-05T02:04:34.568Z,7.62
2023-05-05T02:05:34.603Z,7.63
2023-05-05T02:06:34.587Z,7.63
2023-05-05T02:07:34.594Z,7.64
2023-05-05T02:08:34.604Z,7.65
2023-05-05T02:09:34.628Z,7.64
2023-05-05T02:10:34.642Z,7.66
2023-05-05T02:11:34.646Z,7.66
2023-05-05T02:12:34.670Z,7.65
2023-05-05T02:13:34.681Z,7.64
2023-05-05T02:14:34.684Z,7.64
2023-05-05T02:15:34.716Z,7.63
2023-05-05T02:16:34.711Z,7.63
2023-05-05T02:17:34.802Z,7.62
2023-05-05T02:18:34.737Z,7.62
2023-05-05T02:19:34.766Z,7.61
2023-05-05T02:20:34.760Z,7.61
2023-05-05T02:21:34.849Z,7.62
2023-05-05T02:22:34.788Z,7.62
2023-05-05T02:23:34.806Z,7.60
2023-05-05T02:24:34.813Z,7.57
2023-05-05T02:25:34.824Z,7.58
2023-05-05T02:26:34.831Z,7.56
2023-05-05T02:27:34.848Z,7.53
2023-05-05T02:28:34.861Z,7.52
2023-05-05T02:29:34.877Z,7.51
2023-05-05T02:30:34.875Z,7.53
2023-05-05T02:31:34.893Z,7.51
2023-05-05T02:32:34.954Z,7.51
2023-05-05T02:33:34.919Z,7.52
2023-05-05T02:34:34.933Z,7.52
2023-05-05T02:35:34.939Z,7.51
2023-05-05T02:36:34.954Z,7.50
2023-05-05T02:37:34.968Z,7.46
2023-05-05T02:38:34.979Z,7.44
2023-05-05T02:39:35.111Z,7.41
2023-05-05T02:40:35.001Z,7.40
2023-05-05T02:41:35.022Z,7.37
2023-05-05T02:42:35.044Z,7.33
2023-05-05T02:43:35.059Z,7.31
2023-05-05T02:44:35.054Z,7.31
2023-05-05T02:45:35.073Z,7.29
2023-05-05T02:46:35.113Z,7.27
2023-05-05T02:47:35.106Z,7.23
2023-05-05T02:48:35.096Z,7.21
2023-05-05T02:49:35.113Z,7.20
2023-05-05T02:50:35.127Z,7.17
2023-05-05T02:51:35.139Z,7.15
2023-05-05T02:52:35.153Z,7.12
2023-05-05T02:53:35.158Z,7.10
2023-05-05T02:54:35.172Z,7.07
2023-05-05T02:55:35.213Z,7.06
2023-05-05T02:56:35.196Z,7.03
2023-05-05T02:57:35.212Z,6.98
2023-05-05T02:58:35.246Z,6.97
2023-05-05T02:59:35.250Z,6.94
2023-05-05T03:00:35.255Z,6.94
2023-05-05T03:01:35.265Z,6.92
2023-05-05T03:02:35.295Z,6.89
2023-05-05T03:03:35.330Z,6.90
2023-05-05T03:04:35.280Z,6.88
2023-05-05T03:05:35.294Z,6.85
2023-05-05T03:06:35.304Z,6.82
2023-05-05T03:07:35.311Z,6.80
2023-05-05T03:08:35.322Z,6.78
2023-05-05T03:09:35.338Z,6.75
2023-05-05T03:10:35.348Z,6.74
2023-05-05T03:11:35.374Z,6.73
2023-05-05T03:12:35.401Z,6.72
2023-05-05T03:13:35.386Z,6.73
2023-05-05T03:14:35.394Z,6.71
2023-05-05T03:15:35.398Z,6.71
2023-05-05T03:16:35.427Z,6.72
2023-05-05T03:17:35.436Z,6.70
2023-05-05T03:18:35.447Z,6.70
2023-05-05T03:19:35.462Z,6.68
2023-05-05T03:20:35.475Z,6.69
2023-05-05T03:21:35.491Z,6.67
2023-05-05T03:22:35.496Z,6.66
2023-05-05T03:23:35.514Z,6.66
2023-05-05T03:24:35.523Z,6.63
2023-05-05T03:25:35.543Z,6.65
2023-05-05T03:26:35.555Z,6.60
2023-05-05T03:27:35.565Z,6.57
2023-05-05T03:28:35.575Z,6.57
2023-05-05T03:29:35.593Z,6.58
2023-05-05T03:30:35.595Z,6.54
2023-05-05T03:31:35.637Z,6.54
2023-05-05T03:32:35.620Z,6.52
2023-05-05T03:33:35.626Z,6.51
2023-05-05T03:34:35.647Z,6.51
2023-05-05T03:35:35.651Z,6.50
2023-05-05T03:36:35.671Z,6.48
2023-05-05T03:37:35.681Z,6.50
2023-05-05T03:38:35.691Z,6.49
2023-05-05T03:39:35.708Z,6.47
2023-05-05T03:40:43.339Z,6.48
2023-05-05T03:41:35.730Z,6.49
2023-05-05T03:42:35.740Z,6.48
2023-05-05T03:43:35.758Z,6.50
2023-05-05T03:44:35.772Z,6.49
2023-05-05T03:45:35.792Z,6.47
2023-05-05T03:46:35.794Z,6.46
2023-05-05T03:47:35.832Z,6.45
2023-05-05T03:48:35.816Z,6.44
2023-05-05T03:49:35.819Z,6.42
2023-05-05T03:50:35.825Z,6.42
2023-05-05T03:51:35.843Z,6.42
2023-05-05T03:52:35.862Z,6.41
2023-05-05T03:53:35.868Z,6.39
2023-05-05T03:54:35.881Z,6.39
2023-05-05T03:55:35.895Z,6.39
2023-05-05T03:56:35.900Z,6.39
2023-05-05T03:57:35.916Z,6.37
2023-05-05T03:58:35.927Z,6.35
2023-05-05T03:59:35.937Z,6.38
2023-05-05T04:00:35.950Z,6.38
2023-05-05T04:01:35.968Z,6.37
2023-05-05T04:02:36.011Z,6.40
2023-05-05T04:03:36.043Z,6.38
2023-05-05T04:04:36.064Z,6.42
2023-05-05T04:05:36.018Z,6.39
2023-05-05T04:06:36.030Z,6.39
2023-05-05T04:07:36.039Z,6.38
2023-05-05T04:08:36.066Z,6.38
2023-05-05T04:09:36.073Z,6.38
2023-05-05T04:10:36.089Z,6.38
2023-05-05T04:11:36.095Z,6.38
2023-05-05T04:12:36.117Z,6.39
2023-05-05T04:13:36.129Z,6.40
2023-05-05T04:14:36.143Z,6.42
2023-05-05T04:15:36.149Z,6.40
2023-05-05T04:16:36.158Z,6.41
2023-05-05T04:17:36.196Z,6.42
2023-05-05T04:18:36.181Z,6.42
2023-05-05T04:19:36.194Z,6.43
2023-05-05T04:20:36.205Z,6.45
2023-05-05T04:21:36.232Z,6.47
2023-05-05T04:22:36.227Z,6.51
2023-05-05T04:23:36.230Z,6.50
2023-05-05T04:24:36.259Z,6.51
2023-05-05T04:25:36.264Z,6.55
2023-05-05T04:26:36.274Z,6.58
2023-05-05T04:27:36.289Z,6.61
2023-05-05T04:28:36.299Z,6.63
2023-05-05T04:29:36.329Z,6.68
2023-05-05T04:30:36.333Z,6.71
2023-05-05T04:31:36.345Z,6.73
2023-05-05T04:32:36.392Z,6.75
2023-05-05T04:33:36.362Z,6.77
2023-05-05T04:34:36.375Z,6.81
2023-05-05T04:35:36.382Z,6.84
2023-05-05T04:36:36.389Z,6.85
2023-05-05T04:37:36.399Z,6.90
2023-05-05T04:38:36.422Z,6.94
2023-05-05T04:39:36.424Z,7.01
2023-05-05T04:40:36.443Z,7.08
2023-05-05T04:41:36.452Z,7.08
2023-05-05T04:42:36.458Z,7.12
2023-05-05T04:43:36.475Z,7.14
2023-05-05T04:44:36.495Z,7.16
2023-05-05T04:45:36.505Z,7.19
2023-05-05T04:46:36.530Z,7.22
2023-05-05T04:47:36.594Z,7.24
2023-05-05T04:48:36.540Z,7.25
2023-05-05T04:49:36.546Z,7.26
2023-05-05T04:50:36.558Z,7.30
2023-05-05T04:51:36.566Z,7.31
2023-05-05T04:52:36.583Z,7.33
2023-05-05T04:53:36.593Z,7.36
2023-05-05T04:54:36.599Z,7.37
2023-05-05T04:55:36.616Z,7.36
2023-05-05T04:56:36.638Z,7.37
2023-05-05T04:57:36.647Z,7.40
2023-05-05T04:58:36.666Z,7.45
2023-05-05T04:59:36.679Z,7.49
2023-05-05T05:00:36.700Z,7.52
2023-05-05T05:01:38.516Z,7.56
2023-05-05T05:02:36.739Z,7.60
2023-05-05T05:03:36.770Z,7.62
2023-05-05T05:04:36.724Z,7.61
2023-05-05T05:05:36.730Z,7.61
2023-05-05T05:06:36.749Z,7.61
2023-05-05T05:07:36.763Z,7.60
2023-05-05T05:08:36.785Z,7.66
2023-05-05T05:09:36.795Z,7.71
2023-05-05T05:10:36.803Z,7.79
2023-05-05T05:11:36.813Z,7.84
2023-05-05T05:12:36.834Z,7.92
2023-05-05T05:13:36.843Z,7.97
2023-05-05T05:14:36.859Z,8.04
2023-05-05T05:15:36.873Z,8.09
2023-05-05T05:16:36.899Z,8.15
2023-05-05T05:17:36.941Z,8.17
2023-05-05T05:18:36.902Z,8.22
2023-05-05T05:19:36.912Z,8.28
2023-05-05T05:20:36.923Z,8.34
2023-05-05T05:21:36.943Z,8.40
2023-05-05T05:22:36.949Z,8.47
2023-05-05T05:23:36.962Z,8.48
2023-05-05T05:24:36.993Z,8.49
2023-05-05T05:25:36.987Z,8.49
2023-05-05T05:26:37.002Z,8.54
2023-05-05T05:27:37.009Z,8.58
2023-05-05T05:28:37.020Z,8.60
2023-05-05T05:29:37.028Z,8.65
2023-05-05T05:30:37.055Z,8.68
2023-05-05T05:31:37.131Z,8.71
2023-05-05T05:32:37.094Z,8.73
2023-05-05T05:33:37.085Z,8.73
2023-05-05T05:34:37.102Z,8.75
2023-05-05T05:35:37.119Z,8.74
2023-05-05T05:36:37.144Z,8.77
2023-05-05T05:37:37.133Z,8.79
2023-05-05T05:38:37.159Z,8.79
2023-05-05T05:39:37.167Z,8.74
2023-05-05T05:40:37.183Z,8.65
2023-05-05T05:41:37.189Z,8.60
2023-05-05T05:42:37.206Z,8.56
2023-05-05T05:43:37.217Z,8.55
2023-05-05T05:44:37.237Z,8.54
2023-05-05T05:45:37.252Z,8.55
2023-05-05T05:46:37.279Z,8.57
2023-05-05T05:47:37.303Z,8.55
2023-05-05T05:48:37.292Z,8.56
2023-05-05T05:49:37.305Z,8.55
2023-05-05T05:50:37.324Z,8.55
2023-05-05T05:51:37.331Z,8.52
2023-05-05T05:52:37.350Z,8.54
2023-05-05T05:53:37.382Z,8.56
2023-05-05T05:54:37.366Z,8.58
2023-05-05T05:55:37.370Z,8.60
2023-05-05T05:56:37.388Z,8.57
2023-05-05T05:57:37.395Z,8.58
2023-05-05T05:58:37.418Z,8.55
2023-05-05T05:59:37.422Z,8.56
2023-05-05T06:00:37.437Z,8.57
2023-05-05T06:01:37.446Z,8.54
2023-05-05T06:02:37.544Z,8.52
2023-05-05T06:03:37.551Z,8.54
2023-05-05T06:04:37.524Z,8.53
2023-05-05T06:05:37.509Z,8.54
2023-05-05T06:06:37.512Z,8.54
2023-05-05T06:07:37.533Z,8.57
2023-05-05T06:08:37.556Z,8.57
2023-05-05T06:09:37.557Z,8.58
2023-05-05T06:10:37.574Z,8.64
2023-05-05T06:11:37.591Z,8.67
2023-05-05T06:12:37.629Z,8.73
2023-05-05T06:13:37.612Z,8.78
2023-05-05T06:14:37.638Z,8.83
2023-05-05T06:15:37.657Z,8.84
2023-05-05T06:16:37.659Z,8.85
2023-05-05T06:17:37.678Z,8.92
2023-05-05T06:18:37.692Z,8.92
2023-05-05T06:19:37.720Z,8.92
2023-05-05T06:20:37.719Z,8.95
2023-05-05T06:21:37.735Z,8.97
2023-05-05T06:22:37.753Z,9.01
2023-05-05T06:23:37.768Z,9.05
2023-05-05T06:24:37.785Z,9.11
2023-05-05T06:25:37.792Z,9.13
2023-05-05T06:26:37.816Z,9.16
2023-05-05T06:27:37.830Z,9.18
2023-05-05T06:28:37.841Z,9.24
2023-05-05T06:29:37.851Z,9.24
2023-05-05T06:30:37.869Z,9.28
2023-05-05T06:31:37.912Z,9.31
2023-05-05T06:32:37.958Z,9.37
2023-05-05T06:33:37.915Z,9.40
2023-05-05T06:34:37.923Z,9.44
2023-05-05T06:35:37.935Z,9.46
2023-05-05T06:36:37.993Z,9.50
2023-05-05T06:37:37.971Z,9.49
2023-05-05T06:38:37.977Z,9.51
2023-05-05T06:39:37.983Z,9.51
2023-05-05T06:40:38.013Z,9.54
2023-05-05T06:41:38.036Z,9.52
2023-05-05T06:42:38.036Z,9.51
2023-05-05T06:43:38.055Z,9.53
2023-05-05T06:44:38.065Z,9.57
2023-05-05T06:45:38.073Z,9.57
2023-05-05T06:46:38.117Z,9.59
2023-05-05T06:47:38.157Z,9.63
2023-05-05T06:48:38.117Z,9.66
2023-05-05T06:49:38.120Z,9.68
2023-05-05T06:50:38.140Z,9.71
2023-05-05T06:51:38.375Z,9.73
2023-05-05T06:52:38.170Z,9.77
2023-05-05T06:53:38.215Z,9.78
2023-05-05T06:54:38.232Z,9.79
2023-05-05T06:55:38.212Z,9.82
2023-05-05T06:56:38.213Z,9.86
2023-05-05T06:57:38.227Z,9.92
2023-05-05T06:58:38.267Z,9.96
2023-05-05T06:59:38.259Z,10.02
2023-05-05T07:00:38.287Z,10.06
2023-05-05T07:01:38.292Z,10.09
2023-05-05T07:02:38.331Z,10.17
2023-05-05T07:03:38.354Z,10.18
2023-05-05T07:04:38.322Z,10.19
2023-05-05T07:05:38.335Z,10.23
2023-05-05T07:06:38.349Z,10.27
2023-05-05T07:07:38.369Z,10.30
2023-05-05T07:08:38.395Z,10.34
2023-05-05T07:09:38.423Z,10.37
2023-05-05T07:10:38.413Z,10.42
2023-05-05T07:11:38.502Z,10.48
2023-05-05T07:12:38.474Z,10.50
2023-05-05T07:13:38.445Z,10.55
2023-05-05T07:14:38.458Z,10.63
2023-05-05T07:15:38.476Z,10.67
2023-05-05T07:16:38.515Z,10.71
2023-05-05T07:17:38.533Z,10.74
2023-05-05T07:18:38.510Z,10.78
2023-05-05T07:19:38.524Z,10.86
2023-05-05T07:20:38.534Z,10.96
2023-05-05T07:21:38.591Z,11.05
2023-05-05T07:22:38.581Z,11.17
2023-05-05T07:23:38.592Z,11.27
2023-05-05T07:24:38.618Z,11.37
2023-05-05T07:25:38.597Z,11.47
2023-05-05T07:26:38.613Z,11.58
2023-05-05T07:27:38.617Z,11.70
2023-05-05T07:28:38.641Z,11.80
2023-05-05T07:29:38.658Z,11.89
2023-05-05T07:30:38.677Z,12.01
2023-05-05T07:31:38.736Z,12.08
2023-05-05T07:32:38.703Z,12.18
2023-05-05T07:33:38.706Z,12.23
2023-05-05T07:34:38.729Z,12.29
2023-05-05T07:35:38.742Z,12.36
2023-05-05T07:36:38.754Z,12.41
2023-05-05T07:37:38.764Z,12.48
2023-05-05T07:38:38.796Z,12.55
2023-05-05T07:39:38.801Z,12.63
2023-05-05T07:40:38.811Z,12.69
2023-05-05T07:41:38.824Z,12.78
2023-05-05T07:42:38.832Z,12.84
2023-05-05T07:43:39.408Z,12.88
2023-05-05T07:44:38.866Z,12.86
2023-05-05T07:45:38.876Z,12.84
2023-05-05T07:46:38.897Z,12.90
2023-05-05T07:47:38.987Z,12.89
2023-05-05T07:48:38.924Z,12.94
2023-05-05T07:49:38.932Z,13.00
2023-05-05T07:50:38.947Z,13.08
2023-05-05T07:51:38.957Z,13.10
2023-05-05T07:52:48.130Z,13.10
2023-05-05T07:53:38.984Z,13.02
2023-05-05T07:54:39.001Z,13.04
2023-05-05T07:55:39.011Z,13.09
2023-05-05T07:56:39.043Z,13.17
2023-05-05T07:57:39.044Z,13.27
2023-05-05T07:58:39.061Z,13.37
2023-05-05T07:59:39.095Z,13.43
2023-05-05T08:00:39.093Z,13.50
2023-05-05T08:01:39.134Z,13.51
2023-05-05T08:02:39.169Z,13.56
2023-05-05T08:03:39.223Z,13.60
2023-05-05T08:04:39.169Z,13.64
2023-05-05T08:05:39.150Z,13.68
2023-05-05T08:06:39.168Z,13.67
2023-05-05T08:07:39.176Z,13.68
2023-05-05T08:08:39.183Z,13.74
2023-05-05T08:09:39.195Z,13.76
2023-05-05T08:10:39.216Z,13.81
2023-05-05T08:11:39.223Z,13.80
2023-05-05T08:12:39.309Z,13.72
2023-05-05T08:13:39.269Z,13.67
2023-05-05T08:14:39.264Z,13.72
2023-05-05T08:15:39.301Z,13.78
2023-05-05T08:16:39.293Z,13.80
2023-05-05T08:17:39.297Z,13.80
2023-05-05T08:18:39.299Z,13.82
2023-05-05T08:19:39.334Z,13.85
2023-05-05T08:20:39.332Z,13.91
2023-05-05T08:21:39.335Z,13.96
2023-05-05T08:22:39.347Z,13.98
2023-05-05T08:23:39.354Z,14.03
2023-05-05T08:24:39.359Z,14.11
2023-05-05T08:25:39.368Z,14.22
2023-05-05T08:26:39.370Z,14.23
2023-05-05T08:27:39.376Z,14.25
2023-05-05T08:28:39.381Z,14.27
2023-05-05T08:29:39.399Z,14.30
2023-05-05T08:30:39.399Z,14.38
2023-05-05T08:31:39.526Z,14.36
2023-05-05T08:32:39.435Z,14.38
2023-05-05T08:33:39.424Z,14.40
2023-05-05T08:34:39.427Z,14.40
2023-05-05T08:35:39.449Z,14.43
2023-05-05T08:36:39.466Z,14.48
2023-05-05T08:37:39.451Z,14.45
2023-05-05T08:38:39.459Z,14.44
2023-05-05T08:39:39.463Z,14.41
2023-05-05T08:40:39.481Z,14.42
2023-05-05T08:41:39.487Z,14.45
2023-05-05T08:42:39.741Z,14.42
2023-05-05T08:43:39.491Z,14.41
2023-05-05T08:44:39.492Z,14.43
2023-05-05T08:45:39.498Z,14.43
2023-05-05T08:46:39.528Z,14.46
2023-05-05T08:47:39.594Z,14.46
2023-05-05T08:48:39.515Z,14.51
2023-05-05T08:49:39.520Z,14.53
2023-05-05T08:50:39.527Z,14.51
2023-05-05T08:51:39.534Z,14.50
2023-05-05T08:52:39.622Z,14.46
2023-05-05T08:53:39.546Z,14.43
2023-05-05T08:54:39.549Z,14.40
2023-05-05T08:55:39.558Z,14.38
2023-05-05T08:56:39.569Z,14.31
2023-05-05T08:57:39.574Z,14.25
2023-05-05T08:58:39.579Z,14.21
2023-05-05T08:59:39.594Z,14.09
2023-05-05T09:00:39.614Z,13.98
2023-05-05T09:01:39.608Z,13.86
2023-05-05T09:02:39.656Z,13.78
2023-05-05T09:03:39.652Z,13.74
2023-05-05T09:04:39.630Z,13.71
2023-05-05T09:05:39.644Z,13.72
2023-05-05T09:06:39.642Z,13.73
2023-05-05T09:07:39.651Z,13.73
2023-05-05T09:08:39.665Z,13.74
2023-05-05T09:09:39.681Z,13.77
2023-05-05T09:10:39.682Z,13.82
2023-05-05T09:11:39.693Z,13.93
2023-05-05T09:12:39.712Z,14.03
2023-05-05T09:13:39.700Z,14.12
2023-05-05T09:14:39.705Z,14.21
2023-05-05T09:15:39.715Z,14.22
2023-05-05T09:16:39.721Z,14.25
2023-05-05T09:17:39.743Z,14.30
2023-05-05T09:18:39.735Z,14.41
2023-05-05T09:19:39.746Z,14.49
2023-05-05T09:20:39.749Z,14.62
2023-05-05T09:21:39.763Z,14.72
2023-05-05T09:22:39.776Z,14.84
2023-05-05T09:23:39.788Z,14.93
2023-05-05T09:24:39.788Z,15.00
2023-05-05T09:25:39.805Z,15.08
2023-05-05T09:26:39.808Z,15.18
2023-05-05T09:27:39.816Z,15.22
2023-05-05T09:28:39.824Z,15.29
2023-05-05T09:29:39.835Z,15.38
2023-05-05T09:30:39.868Z,15.47
2023-05-05T09:31:39.848Z,15.55
2023-05-05T09:32:39.876Z,15.60
2023-05-05T09:33:39.861Z,15.67
2023-05-05T09:34:39.872Z,15.73
2023-05-05T09:35:39.879Z,15.83
2023-05-05T09:36:39.905Z,15.96
2023-05-05T09:37:39.896Z,16.08
2023-05-05T09:38:39.902Z,16.12
2023-05-05T09:39:39.913Z,16.20
2023-05-05T09:40:39.917Z,16.28
2023-05-05T09:41:39.929Z,16.31
2023-05-05T09:42:39.938Z,16.31
2023-05-05T09:43:39.934Z,16.13
2023-05-05T09:44:39.940Z,16.02
2023-05-05T09:45:39.949Z,16.01
2023-05-05T09:46:39.997Z,16.00
2023-05-05T09:47:39.980Z,16.01
2023-05-05T09:48:39.966Z,16.01
2023-05-05T09:49:39.972Z,15.98
2023-05-05T09:50:39.979Z,15.92
2023-05-05T09:51:39.984Z,15.80
2023-05-05T09:52:39.993Z,15.82
2023-05-05T09:53:40.004Z,15.85
2023-05-05T09:54:40.017Z,15.86
2023-05-05T09:55:40.029Z,15.88
2023-05-05T09:56:40.024Z,15.91
2023-05-05T09:57:40.031Z,15.92
2023-05-05T09:58:40.077Z,15.92
2023-05-05T09:59:40.046Z,15.93
2023-05-05T10:00:40.052Z,16.01
2023-05-05T10:01:40.118Z,16.02
2023-05-05T10:02:40.100Z,16.05
2023-05-05T10:03:40.081Z,16.08
2023-05-05T10:04:40.115Z,16.13
2023-05-05T10:05:40.094Z,16.16
2023-05-05T10:06:40.106Z,16.13
2023-05-05T10:07:40.108Z,16.10
2023-05-05T10:08:40.114Z,16.04
2023-05-05T10:09:40.115Z,16.03
2023-05-05T10:10:40.118Z,15.97
2023-05-05T10:11:40.146Z,15.94
2023-05-05T10:12:40.164Z,15.94
2023-05-05T10:13:40.148Z,15.86
2023-05-05T10:14:40.148Z,15.86
2023-05-05T10:15:40.156Z,15.83
2023-05-05T10:16:40.207Z,15.86
2023-05-05T10:17:41.396Z,15.91
2023-05-05T10:18:40.239Z,16.01
2023-05-05T10:19:40.215Z,16.14
2023-05-05T10:20:40.201Z,16.15
2023-05-05T10:21:41.907Z,16.21
2023-05-05T10:22:40.226Z,16.29
2023-05-05T10:23:40.219Z,16.39
2023-05-05T10:24:40.227Z,16.48
2023-05-05T10:25:40.232Z,16.59
2023-05-05T10:26:40.237Z,16.71
2023-05-05T10:27:40.257Z,16.83
2023-05-05T10:28:40.254Z,16.95
2023-05-05T10:29:40.301Z,17.09
2023-05-05T10:30:40.272Z,17.17
2023-05-05T10:31:40.283Z,17.14
2023-05-05T10:32:51.862Z,17.16
2023-05-05T10:33:40.369Z,17.28
2023-05-05T10:34:40.312Z,17.39
2023-05-05T10:35:40.314Z,17.58
2023-05-05T10:36:40.324Z,17.57
2023-05-05T10:37:40.329Z,17.57
2023-05-05T10:38:40.346Z,17.57
2023-05-05T10:39:40.350Z,17.64
2023-05-05T10:40:40.361Z,17.65
2023-05-05T10:41:40.364Z,17.74
2023-05-05T10:42:40.457Z,17.80
2023-05-05T10:43:40.386Z,17.92
2023-05-05T10:44:40.397Z,17.93
2023-05-05T10:45:40.483Z,17.96
2023-05-05T10:46:40.516Z,18.02
2023-05-05T10:47:40.465Z,18.14
2023-05-05T10:48:40.459Z,18.21
2023-05-05T10:49:40.430Z,18.29
2023-05-05T10:50:40.444Z,18.29
2023-05-05T10:51:41.253Z,18.21
2023-05-05T10:52:40.456Z,18.21
2023-05-05T10:53:40.461Z,18.22
2023-05-05T10:54:40.477Z,18.27
2023-05-05T10:55:40.473Z,18.23
2023-05-05T10:56:40.483Z,18.22
2023-05-05T10:57:40.496Z,18.25
2023-05-05T10:58:47.438Z,18.24
2023-05-05T10:59:40.502Z,18.26
2023-05-05T11:00:40.507Z,18.26
2023-05-05T11:01:40.511Z,18.25
2023-05-05T11:02:40.548Z,18.24
2023-05-05T11:03:40.543Z,18.18
2023-05-05T11:04:40.532Z,18.10
2023-05-05T11:05:40.536Z,18.11
2023-05-05T11:06:40.544Z,18.16
2023-05-05T11:07:40.551Z,18.18
2023-05-05T11:08:40.564Z,18.12
2023-05-05T11:09:40.560Z,18.11
2023-05-05T11:10:40.567Z,18.12
2023-05-05T11:11:40.575Z,18.03
2023-05-05T11:12:40.584Z,17.94
2023-05-05T11:13:40.586Z,17.81
2023-05-05T11:14:40.620Z,17.74
2023-05-05T11:15:40.600Z,17.77
2023-05-05T11:16:40.648Z,17.82
2023-05-05T11:17:40.613Z,17.88
2023-05-05T11:18:40.617Z,17.95
2023-05-05T11:19:40.621Z,17.92
2023-05-05T11:20:40.630Z,17.87
2023-05-05T11:21:40.638Z,17.76
2023-05-05T11:22:40.637Z,17.73
2023-05-05T11:23:40.643Z,17.73
2023-05-05T11:24:40.653Z,17.79
2023-05-05T11:25:40.988Z,17.88
2023-05-05T11:26:40.670Z,17.97
2023-05-05T11:27:40.676Z,18.08
2023-05-05T11:28:40.687Z,18.12
2023-05-05T11:29:40.697Z,18.20
2023-05-05T11:30:40.715Z,18.22
2023-05-05T11:31:40.887Z,18.31
2023-05-05T11:32:40.736Z,18.30
2023-05-05T11:33:40.723Z,18.38
2023-05-05T11:34:40.736Z,18.46
2023-05-05T11:35:40.743Z,18.50
2023-05-05T11:36:40.763Z,18.63
2023-05-05T11:37:40.758Z,18.76
2023-05-05T11:38:40.764Z,18.88
2023-05-05T11:39:40.772Z,18.98
2023-05-05T11:40:40.784Z,19.04
2023-05-05T11:41:40.790Z,19.00
2023-05-05T11:42:40.821Z,19.07
2023-05-05T11:43:40.805Z,19.06
2023-05-05T11:44:40.812Z,19.12
2023-05-05T11:45:40.818Z,19.13
2023-05-05T11:46:40.944Z,19.00
2023-05-05T11:47:40.881Z,18.95
2023-05-05T11:48:40.838Z,18.87
2023-05-05T11:49:40.850Z,18.86
2023-05-05T11:50:40.904Z,18.85
2023-05-05T11:51:40.873Z,18.91
2023-05-05T11:52:40.862Z,18.99
2023-05-05T11:53:40.868Z,19.06
2023-05-05T11:54:40.893Z,19.12
2023-05-05T11:55:40.882Z,19.20
2023-05-05T11:56:40.890Z,19.17
2023-05-05T11:57:40.893Z,19.18
2023-05-05T11:58:40.901Z,19.21
2023-05-05T11:59:40.904Z,19.23
2023-05-05T12:00:40.917Z,19.29
2023-05-05T12:01:40.933Z,19.29
2023-05-05T12:02:41.049Z,19.27
2023-05-05T12:03:41.120Z,19.22
2023-05-05T12:04:40.992Z,19.21
2023-05-05T12:05:40.956Z,19.27
2023-05-05T12:06:40.966Z,19.29
2023-05-05T12:07:40.977Z,19.27
2023-05-05T12:08:40.980Z,19.19
2023-05-05T12:09:40.979Z,19.16
2023-05-05T12:10:40.986Z,19.13
2023-05-05T12:11:40.992Z,19.16
2023-05-05T12:12:41.032Z,19.21
2023-05-05T12:13:41.004Z,19.22
2023-05-05T12:14:41.014Z,19.27
2023-05-05T12:15:41.017Z,19.25
2023-05-05T12:16:41.182Z,19.30
2023-05-05T12:17:41.073Z,19.25
2023-05-05T12:18:41.034Z,19.07
2023-05-05T12:19:41.042Z,18.87
2023-05-05T12:20:41.047Z,18.73
2023-05-05T12:21:41.054Z,18.67
2023-05-05T12:22:41.138Z,18.62
2023-05-05T12:23:41.075Z,18.54
2023-05-05T12:24:41.073Z,18.50
2023-05-05T12:25:41.076Z,18.45
2023-05-05T12:26:41.089Z,18.35
2023-05-05T12:27:41.094Z,18.16
2023-05-05T12:28:41.099Z,17.94
2023-05-05T12:29:41.111Z,17.83
2023-05-05T12:30:41.117Z,17.76
2023-05-05T12:31:41.187Z,17.72
2023-05-05T12:32:41.162Z,17.69
2023-05-05T12:33:41.144Z,17.66
2023-05-05T12:34:41.147Z,17.65
2023-05-05T12:35:41.152Z,17.65
2023-05-05T12:36:41.166Z,17.64
2023-05-05T12:37:41.172Z,17.64
2023-05-05T12:38:41.177Z,17.61
2023-05-05T12:39:41.190Z,17.55
2023-05-05T12:40:41.200Z,17.42
2023-05-05T12:41:41.227Z,17.34
2023-05-05T12:42:41.216Z,17.30
2023-05-05T12:43:41.218Z,17.28
2023-05-05T12:44:41.229Z,17.29
2023-05-05T12:45:41.259Z,17.29
2023-05-05T12:46:41.241Z,17.29
2023-05-05T12:47:41.261Z,17.26
2023-05-05T12:48:41.256Z,17.14
2023-05-05T12:49:41.262Z,17.02
2023-05-05T12:50:41.278Z,16.95
2023-05-05T12:51:41.275Z,16.91
2023-05-05T12:52:41.291Z,16.88
2023-05-05T12:53:41.290Z,16.89
2023-05-05T12:54:41.299Z,16.91
2023-05-05T12:55:41.303Z,16.92
2023-05-05T12:56:41.318Z,16.94
2023-05-05T12:57:41.322Z,16.97
2023-05-05T12:58:41.324Z,16.92
2023-05-05T12:59:41.328Z,16.89
2023-05-05T13:00:41.333Z,16.85
2023-05-05T13:01:41.368Z,16.85
2023-05-05T13:02:41.410Z,16.82
2023-05-05T13:03:41.384Z,16.84
2023-05-05T13:04:41.368Z,16.86
2023-05-05T13:05:41.372Z,16.91
2023-05-05T13:06:41.397Z,16.95
2023-05-05T13:07:41.387Z,17.03
2023-05-05T13:08:41.390Z,17.13
2023-05-05T13:09:41.398Z,17.19
2023-05-05T13:10:41.462Z,17.29
2023-05-05T13:11:41.413Z,17.32
2023-05-05T13:12:41.432Z,17.38
2023-05-05T13:13:41.433Z,17.45
2023-05-05T13:14:41.456Z,17.48
2023-05-05T13:15:41.526Z,17.52
2023-05-05T13:16:41.459Z,17.57
2023-05-05T13:17:41.511Z,17.57
2023-05-05T13:18:41.472Z,17.60
2023-05-05T13:19:41.517Z,17.67
2023-05-05T13:20:41.488Z,17.75
2023-05-05T13:21:41.524Z,17.87
2023-05-05T13:22:41.504Z,17.95